Bbg Ambition — VRPR3 — position and weather

sailwx.info

Track history (hours):
 
Tides and Currents Weather Stations Pressure Air Temp Water Temp Dewpoint Dewpoint Depression Visibility Wind Speed Wind Dir Waves Ship Positions

Bbg Ambition

Last reported at 2017-Oct-22 08:34 UTC. Time now 2017-Dec-11 04:21 UTC.
Position N 17°29' W 060°57'.
Warning: this ship's position is 49 days out of date.

Length 229 m; draft 13.7 m.

Type: Cargo ship. MMSI: 477129200.

Date/timePositionNaut miles runAvg speedWind from/ knotsBaromVisibWave heightAir tempDewpointWater temp
2017-Oct-22 08:34N 17°29' W 060°57'110.0
2017-Oct-22 08:30N 17°29' W 060°57'510.1
2017-Oct-22 08:00N 17°32' W 061°01'510.1
2017-Oct-22 07:30N 17°35' W 061°06'510.3
2017-Oct-22 07:00N 17°38' W 061°10'510.3
2017-Oct-22 06:30N 17°42' W 061°14'510.3
2017-Oct-22 06:00N 17°45' W 061°18'510.1
2017-Oct-22 05:30N 17°48' W 061°22'510.0
2017-Oct-22 05:00N 17°51' W 061°26'510.0
2017-Oct-22 04:30N 17°54' W 061°31'5910.1
2017-Oct-21 22:39N 18°30' W 062°20'1210.1
2017-Oct-21 21:29N 18°35' W 062°31'510.5
2017-Oct-21 21:00N 18°37' W 062°36'3210.9
2017-Oct-21 18:03N 18°49' W 063°08'  
2017-Oct-14 09:53N 30°03' W 090°35'0 0.0
2017-Oct-14 09:29N 30°03' W 090°35'  
Track history (hours):
 
Tides and Currents Weather Stations Pressure Air Temp Water Temp Dewpoint Dewpoint Depression Visibility Wind Speed Wind Dir Waves Ship Positions

Bbg Ambition

Last reported at 2017-Oct-22 08:34 UTC. Time now 2017-Dec-11 04:21 UTC.
Position N 17°29' W 060°57'.
Warning: this ship's position is 49 days out of date.

Length 229 m; draft 13.7 m.

Type: Cargo ship. MMSI: 477129200.

Date/timePositionNaut miles runAvg speedWind from/ knotsBaromVisibWave heightAir tempDewpointWater temp
2017-Oct-22 08:34N 17°29' W 060°57'110.0
2017-Oct-22 08:30N 17°29' W 060°57'510.1
2017-Oct-22 08:00N 17°32' W 061°01'510.1
2017-Oct-22 07:30N 17°35' W 061°06'510.3
2017-Oct-22 07:00N 17°38' W 061°10'510.3
2017-Oct-22 06:30N 17°42' W 061°14'510.3
2017-Oct-22 06:00N 17°45' W 061°18'510.1
2017-Oct-22 05:30N 17°48' W 061°22'510.0
2017-Oct-22 05:00N 17°51' W 061°26'510.0
2017-Oct-22 04:30N 17°54' W 061°31'5910.1
2017-Oct-21 22:39N 18°30' W 062°20'1210.1
2017-Oct-21 21:29N 18°35' W 062°31'510.5
2017-Oct-21 21:00N 18°37' W 062°36'3210.9
2017-Oct-21 18:03N 18°49' W 063°08'  
2017-Oct-14 09:53N 30°03' W 090°35'0 0.0
2017-Oct-14 09:29N 30°03' W 090°35'  

Dump ship's entire track history